Time;durP1;ratioP1;P1;durP2;ratioP2;P2;SDS_P1;SDS_P2;PMS_P1;PMS_P2;Temp;Humidity;BMP_temperature;BMP_pressure;BME280_temperature;BME280_humidity;BME280_pressure;Samples;Min_cycle;Max_cycle;Signal;HPM_P1;HPM_P2
2022/10/09 00:00:11;;;;;;;14.77;9.88;;;;;;;4.41;100.00;102577.03;5013343;28;20026;-79
2022/10/09 00:02:37;;;;;;;14.43;10.00;;;;;;;4.41;100.00;102572.78;5013306;28;20482;-79
2022/10/09 00:05:02;;;;;;;13.50;9.30;;;;;;;4.35;100.00;102559.22;5013004;28;20533;-79
2022/10/09 00:07:27;;;;;;;14.07;9.00;;;;;;;4.36;100.00;102576.25;5013270;28;20044;-79
2022/10/09 00:09:53;;;;;;;13.75;9.07;;;;;;;4.32;100.00;102565.19;5013344;28;20454;-79
2022/10/09 00:12:18;;;;;;;13.82;8.52;;;;;;;4.27;100.00;102561.84;5013006;28;20489;-79
2022/10/09 00:14:44;;;;;;;14.43;9.32;;;;;;;4.31;100.00;102571.16;5013295;28;20038;-79
2022/10/09 00:17:09;;;;;;;12.73;8.32;;;;;;;4.16;100.00;102556.81;5013252;28;20400;-80
2022/10/09 00:19:34;;;;;;;13.50;8.35;;;;;;;4.20;100.00;102566.16;5013061;28;20573;-79
2022/10/09 00:21:59;;;;;;;14.40;7.88;;;;;;;4.24;100.00;102583.19;5013211;28;20030;-75
2022/10/09 00:24:25;;;;;;;13.60;7.78;;;;;;;4.20;100.00;102585.75;5013121;28;20057;-79
2022/10/09 00:26:50;;;;;;;12.20;7.68;;;;;;;4.19;100.00;102576.41;5013059;28;20034;-79
2022/10/09 00:29:15;;;;;;;11.45;7.97;;;;;;;4.06;100.00;102570.53;5013008;28;20032;-79
2022/10/09 00:31:41;;;;;;;11.48;7.57;;;;;;;4.07;100.00;102577.34;5012801;28;20084;-79
2022/10/09 00:34:06;;;;;;;15.98;7.50;;;;;;;4.12;100.00;102577.31;5011719;28;20026;-78
2022/10/09 00:36:31;;;;;;;13.27;7.85;;;;;;;4.12;100.00;102584.97;5012973;28;20029;-75
2022/10/09 00:38:56;;;;;;;12.55;7.53;;;;;;;4.12;100.00;102587.53;5012976;28;20030;-79
2022/10/09 00:41:30;;;;;;;12.02;7.95;;;;;;;3.90;100.00;102551.91;5012888;28;20422;-75
2022/10/09 00:44:01;;;;;;;10.43;7.80;;;;;;;4.07;100.00;102579.91;5012808;28;20113;-82
2022/10/09 00:46:43;;;;;;;12.85;7.53;;;;;;;4.06;100.00;102575.66;5032614;28;20030;-76
2022/10/09 00:49:12;;;;;;;11.93;7.13;;;;;;;4.02;100.00;102577.38;5032226;28;20488;-80
2022/10/09 00:51:37;;;;;;;15.77;8.20;;;;;;;4.02;100.00;102576.53;5032418;28;20045;-76
2022/10/09 00:54:06;;;;;;;13.85;7.38;;;;;;;4.00;100.00;102578.25;5014122;28;20120;-80
2022/10/09 00:56:33;;;;;;;12.02;7.40;;;;;;;3.92;100.00;102568.06;5032319;28;20496;-76
2022/10/09 00:58:59;;;;;;;12.95;7.55;;;;;;;3.88;100.00;102563.84;5032359;28;20485;-80
2022/10/09 01:01:24;;;;;;;13.45;7.47;;;;;;;3.92;100.00;102577.44;5034512;28;20025;-76
2022/10/09 01:03:50;;;;;;;12.50;7.50;;;;;;;3.87;100.00;102563.88;5035880;28;20101;-79
2022/10/09 01:06:24;;;;;;;13.45;7.68;;;;;;;3.90;100.00;102566.41;5035994;28;20025;-79
2022/10/09 01:09:04;;;;;;;10.38;7.05;;;;;;;3.85;100.00;102561.34;5036093;28;20469;-76
2022/10/09 01:11:52;;;;;;;12.32;7.35;;;;;;;3.85;100.00;102563.88;5036062;28;20022;-76
2022/10/09 01:14:31;;;;;;;10.48;6.82;;;;;;;3.77;100.00;102557.13;4955471;29;20459;-79
2022/10/09 01:17:16;;;;;;;12.75;7.50;;;;;;;3.76;100.00;102556.28;4939415;29;20102;-79
2022/10/09 01:20:00;;;;;;;13.20;7.57;;;;;;;3.75;100.00;102562.25;4955231;28;20110;-76
2022/10/09 01:22:53;;;;;;;13.30;7.75;;;;;;;3.59;100.00;102535.13;4955543;29;20038;-79
2022/10/09 01:25:35;;;;;;;13.98;8.25;;;;;;;3.73;100.00;102564.81;4955508;29;20043;-77
2022/10/09 01:28:01;;;;;;;;;;;;;;;3.77;100.00;102562.25;4955765;29;20437;-79
2022/10/09 01:30:28;;;;;;;15.88;7.72;;;;;;;3.52;100.00;102536.00;4955272;28;19948;-80
2022/10/09 01:32:54;;;;;;;11.93;7.65;;;;;;;3.66;100.00;102558.06;4955361;29;20039;-76
2022/10/09 01:35:21;;;;;;;12.98;7.70;;;;;;;3.66;100.00;102554.66;4955154;28;20027;-78
2022/10/09 01:37:50;;;;;;;13.38;8.15;;;;;;;3.66;100.00;102547.84;4955372;29;20031;-77
2022/10/09 01:40:16;;;;;;;12.88;7.53;;;;;;;3.45;100.00;102523.28;4939103;29;20392;-76
2022/10/09 01:42:41;;;;;;;13.48;7.72;;;;;;;3.35;100.00;102506.31;4955201;29;20089;-78
2022/10/09 01:45:08;;;;;;;13.68;7.43;;;;;;;3.40;100.00;102516.50;4954964;28;20567;-80
2022/10/09 01:47:33;;;;;;;13.27;7.00;;;;;;;3.58;100.00;102548.75;4955018;29;20471;-76
2022/10/09 01:50:18;;;;;;;14.18;8.02;;;;;;;3.55;100.00;102546.22;4954811;29;20053;-79
2022/10/09 01:53:06;;;;;;;11.55;6.93;;;;;;;3.44;100.00;102530.94;5035138;28;20033;-78
2022/10/09 01:55:39;;;;;;;11.52;7.07;;;;;;;3.48;100.00;102532.63;5035017;28;20025;-77
2022/10/09 01:58:07;;;;;;;11.65;7.07;;;;;;;3.41;100.00;102531.81;5035172;28;20065;-79
2022/10/09 02:01:00;;;;;;;10.63;6.95;;;;;;;3.40;100.00;102534.38;5034789;28;20083;-78
2022/10/09 02:03:27;;;;;;;12.07;7.07;;;;;;;3.16;100.00;102485.16;5034929;28;20033;-76
2022/10/09 02:05:54;;;;;;;12.68;7.45;;;;;;;3.34;100.00;102519.06;5034791;28;20033;-76
2022/10/09 02:08:22;;;;;;;11.02;7.13;;;;;;;3.04;100.00;102475.00;5016262;28;20397;-76
2022/10/09 02:10:50;;;;;;;10.85;7.15;;;;;;;3.34;100.00;102519.97;5034833;28;20029;-75
2022/10/09 02:13:16;;;;;;;13.32;6.88;;;;;;;3.16;100.00;102500.47;5034349;28;20137;-76
2022/10/09 02:15:58;;;;;;;13.05;7.35;;;;;;;3.30;100.00;102523.38;5034714;28;20197;-76
2022/10/09 02:18:45;;;;;;;15.57;7.70;;;;;;;3.28;100.00;102519.97;5034578;28;20037;-75
2022/10/09 02:21:20;;;;;;;11.50;6.68;;;;;;;3.23;100.00;102524.25;5034544;28;20033;-75
2022/10/09 02:23:48;;;;;;;14.85;6.97;;;;;;;3.18;100.00;102515.78;5034513;28;20053;-76
2022/10/09 02:26:14;;;;;;;13.50;7.22;;;;;;;3.19;100.00;102517.47;5034509;28;20469;-75
2022/10/09 02:28:40;;;;;;;11.98;6.60;;;;;;;2.99;100.00;102492.06;5034318;28;20036;-75
2022/10/09 02:31:25;;;;;;;11.75;6.80;;;;;;;3.12;100.00;102511.53;5034312;28;20029;-75
2022/10/09 02:33:59;;;;;;;12.43;7.35;;;;;;;3.04;100.00;102500.50;5034226;28;20053;-76
2022/10/09 02:36:25;;;;;;;11.27;7.00;;;;;;;3.04;100.00;102510.72;5034155;28;20485;-76
2022/10/09 02:38:51;;;;;;;12.80;7.47;;;;;;;2.99;100.00;102506.50;5034271;28;20453;-75
2022/10/09 02:41:16;;;;;;;11.55;7.68;;;;;;;3.02;100.00;102509.88;5034111;28;20064;-75
2022/10/09 02:43:41;;;;;;;13.35;7.40;;;;;;;3.00;100.00;102501.41;5034157;28;20033;-77
2022/10/09 02:46:07;;;;;;;14.57;7.57;;;;;;;2.82;100.00;102476.81;5034268;28;20037;-76
2022/10/09 02:48:32;;;;;;;11.63;7.28;;;;;;;2.99;100.00;102511.63;5034164;28;20472;-76
2022/10/09 02:50:58;;;;;;;14.98;7.70;;;;;;;2.83;100.00;102482.75;5034014;28;20471;-76
2022/10/09 02:53:24;;;;;;;13.27;7.78;;;;;;;2.92;100.00;102500.59;5034156;28;20030;-76
2022/10/09 02:55:49;;;;;;;12.85;7.50;;;;;;;2.92;100.00;102500.59;5033907;28;20398;-76
2022/10/09 02:58:14;;;;;;;14.57;8.95;;;;;;;2.92;100.00;102504.84;5034126;28;20029;-76
2022/10/09 03:00:40;;;;;;;13.13;7.70;;;;;;;2.90;100.00;102491.25;5015787;28;20503;-75
2022/10/09 03:03:05;;;;;;;14.00;8.18;;;;;;;2.82;100.00;102483.63;5033913;28;20041;-77
2022/10/09 03:05:30;;;;;;;14.45;8.80;;;;;;;2.81;100.00;102495.53;5034019;28;20018;-76
2022/10/09 03:07:56;;;;;;;14.57;7.88;;;;;;;2.73;100.00;102483.66;5033729;28;20032;-76
2022/10/09 03:10:21;;;;;;;12.55;8.00;;;;;;;2.79;100.00;102496.41;5033698;28;20017;-76
2022/10/09 03:12:47;;;;;;;14.80;7.85;;;;;;;2.79;100.00;102497.25;5033546;28;20033;-76
2022/10/09 03:15:12;;;;;;;13.60;8.07;;;;;;;2.75;100.00;102494.69;5033731;28;20030;-77
2022/10/09 03:17:38;;;;;;;13.82;9.07;;;;;;;2.71;100.00;102487.91;5033628;28;20021;-77
2022/10/09 03:20:04;;;;;;;14.02;8.55;;;;;;;2.61;100.00;102473.50;5015671;28;20042;-77
2022/10/09 03:22:29;;;;;;;13.80;8.93;;;;;;;2.67;100.00;102482.00;5033346;28;20053;-76
2022/10/09 03:24:54;;;;;;;12.68;8.68;;;;;;;2.64;100.00;102481.13;5033026;28;20037;-76
2022/10/09 03:27:20;;;;;;;12.50;8.30;;;;;;;2.71;100.00;102493.03;5033560;28;20044;-76
2022/10/09 03:29:45;;;;;;;13.55;8.45;;;;;;;2.61;100.00;102489.66;5033569;28;20026;-80
2022/10/09 03:32:11;;;;;;;13.27;8.63;;;;;;;2.47;100.00;102454.00;5033367;28;20492;-81
2022/10/09 03:34:36;;;;;;;13.32;8.43;;;;;;;2.65;100.00;102490.47;5033692;28;20484;-79
2022/10/09 03:37:02;;;;;;;15.10;7.93;;;;;;;2.42;100.00;102463.34;5033404;28;20029;-80
2022/10/09 03:39:27;;;;;;;14.32;9.73;;;;;;;2.59;100.00;102493.91;5033521;28;20550;-80
2022/10/09 03:41:53;;;;;;;14.60;8.77;;;;;;;2.57;100.00;102488.81;5033451;28;20034;-79
2022/10/09 03:44:19;;;;;;;17.75;9.75;;;;;;;2.57;100.00;102491.38;5033364;28;20025;-80
2022/10/09 03:46:45;;;;;;;14.68;9.30;;;;;;;2.56;100.00;102486.28;5033154;28;20516;-81
2022/10/09 03:49:11;;;;;;;15.90;10.10;;;;;;;2.56;100.00;102494.78;5033169;28;20026;-81
2022/10/09 03:51:36;;;;;;;15.52;8.82;;;;;;;2.57;100.00;102486.28;5033076;28;20032;-80
2022/10/09 03:54:01;;;;;;;15.18;9.57;;;;;;;2.43;100.00;102470.16;5033386;28;20022;-80
2022/10/09 03:56:27;;;;;;;15.75;9.68;;;;;;;2.53;100.00;102492.22;5033106;28;20025;-79
2022/10/09 03:58:52;;;;;;;15.98;9.73;;;;;;;2.53;100.00;102499.88;5033141;28;20104;-80
2022/10/09 04:01:17;;;;;;;18.80;10.95;;;;;;;2.55;100.00;102497.31;5033078;28;20052;-80
2022/10/09 04:03:43;;;;;;;18.23;10.82;;;;;;;2.52;100.00;102495.63;5032955;28;20029;-77
2022/10/09 04:06:08;;;;;;;18.35;10.13;;;;;;;2.38;100.00;102484.63;5032965;28;20156;-80
2022/10/09 04:08:34;;;;;;;16.27;10.23;;;;;;;2.48;100.00;102498.19;5032947;28;20100;-80
2022/10/09 04:11:00;;;;;;;17.40;9.82;;;;;;;2.41;100.00;102484.63;5033111;28;20425;-81
2022/10/09 04:13:25;;;;;;;17.05;10.68;;;;;;;2.48;100.00;102493.94;5032902;28;20095;-80
2022/10/09 04:15:52;;;;;;;16.42;10.18;;;;;;;2.42;100.00;102488.84;5033003;28;20112;-80
2022/10/09 04:18:18;;;;;;;15.35;9.68;;;;;;;2.30;100.00;102473.59;5032948;28;20017;-80
2022/10/09 04:20:54;;;;;;;16.15;10.15;;;;;;;2.40;100.00;102494.81;5032913;28;20044;-77
2022/10/09 04:23:22;;;;;;;18.40;10.45;;;;;;;2.39;100.00;102496.53;5032938;28;20075;-79
2022/10/09 04:25:52;;;;;;;14.68;10.00;;;;;;;2.20;100.00;102469.38;5033008;28;20026;-81
2022/10/09 04:28:18;;;;;;;14.52;9.75;;;;;;;2.05;100.00;102446.44;5033012;28;20380;-81
2022/10/09 04:30:43;;;;;;;13.45;9.27;;;;;;;2.30;100.00;102494.84;5032744;28;20025;-79
2022/10/09 04:33:08;;;;;;;15.55;10.20;;;;;;;2.20;100.00;102477.03;5032703;28;20029;-80
2022/10/09 04:35:34;;;;;;;15.88;10.60;;;;;;;2.30;100.00;102494.00;5033339;28;20112;-80
2022/10/09 04:37:59;;;;;;;15.05;10.05;;;;;;;2.27;100.00;102488.91;5036546;28;20049;-79
2022/10/09 04:40:24;;;;;;;15.60;9.82;;;;;;;2.08;100.00;102466.84;5036569;28;20393;-81
2022/10/09 04:42:49;;;;;;;15.65;10.40;;;;;;;2.05;100.00;102457.50;5036657;28;20503;-76
2022/10/09 04:45:15;;;;;;;17.23;9.60;;;;;;;2.20;100.00;102485.50;5018801;28;20032;-79
2022/10/09 04:47:40;;;;;;;18.80;11.05;;;;;;;2.18;100.00;102479.56;5036188;28;20090;-81
2022/10/09 04:50:06;;;;;;;15.93;9.82;;;;;;;2.01;100.00;102453.25;5036401;28;20233;-77
2022/10/09 04:52:32;;;;;;;20.70;11.48;;;;;;;2.16;100.00;102488.03;5036247;28;20036;-80
2022/10/09 04:54:57;;;;;;;16.77;10.35;;;;;;;2.11;100.00;102477.03;5036571;28;20422;-80
2022/10/09 04:57:23;;;;;;;14.15;10.50;;;;;;;2.06;100.00;102476.16;5036291;28;20109;-77
2022/10/09 04:59:48;;;;;;;17.05;10.63;;;;;;;2.07;100.00;102477.91;5036241;28;20025;-81
2022/10/09 05:02:13;;;;;;;17.42;10.45;;;;;;;1.86;100.00;102451.56;5035993;28;20033;-80
2022/10/09 05:04:38;;;;;;;15.43;10.20;;;;;;;2.01;100.00;102474.50;5035990;28;20075;-77
2022/10/09 05:07:04;;;;;;;17.00;11.10;;;;;;;2.00;100.00;102472.78;5036121;28;20025;-79
2022/10/09 05:09:29;;;;;;;14.20;9.73;;;;;;;1.83;100.00;102445.63;5018158;28;20022;-78
2022/10/09 05:11:54;;;;;;;17.60;11.43;;;;;;;1.96;100.00;102465.13;5035968;28;20033;-77
2022/10/09 05:14:20;;;;;;;15.80;10.68;;;;;;;1.79;100.00;102433.78;5035678;28;20076;-80
2022/10/09 05:16:48;;;;;;;20.60;10.98;;;;;;;1.70;100.00;102411.69;5035887;28;20032;-77
2022/10/09 05:19:14;;;;;;;18.60;10.88;;;;;;;1.93;100.00;102460.91;5035832;28;20259;-77
2022/10/09 05:21:39;;;;;;;18.13;10.85;;;;;;;1.95;100.00;102461.75;5035914;28;20559;-78
2022/10/09 05:24:04;;;;;;;18.30;11.60;;;;;;;1.77;100.00;102432.91;5035637;28;20041;-80
2022/10/09 05:26:30;;;;;;;19.40;11.13;;;;;;;1.70;100.00;102415.09;5035739;28;20473;-79
2022/10/09 05:28:55;;;;;;;18.25;10.60;;;;;;;1.88;100.00;102454.13;5035887;28;20021;-79
2022/10/09 05:31:22;;;;;;;17.65;11.10;;;;;;;1.90;100.00;102454.97;5033638;28;20033;-80
2022/10/09 05:33:48;;;;;;;17.45;10.85;;;;;;;1.89;100.00;102459.22;5035701;28;20372;-80
2022/10/09 05:36:14;;;;;;;16.52;10.52;;;;;;;1.88;100.00;102454.97;5035684;28;20025;-80
2022/10/09 05:38:39;;;;;;;17.83;10.00;;;;;;;1.69;100.00;102426.13;5035473;28;20075;-80
2022/10/09 05:41:06;;;;;;;15.25;10.48;;;;;;;1.86;100.00;102451.56;5035520;28;20500;-79
2022/10/09 05:43:38;;;;;;;16.92;10.10;;;;;;;1.75;100.00;102440.53;5035390;28;20032;-77
2022/10/09 05:46:09;;;;;;;17.83;10.20;;;;;;;1.86;100.00;102461.75;5035033;28;20388;-77
2022/10/09 05:48:35;;;;;;;18.75;10.40;;;;;;;1.86;100.00;102460.91;5035269;28;20030;-81
2022/10/09 05:51:13;;;;;;;15.10;9.93;;;;;;;1.89;100.00;102466.88;5035217;28;20465;-80
2022/10/09 05:53:40;;;;;;;16.20;9.90;;;;;;;1.88;100.00;102460.09;5035220;28;20029;-76
2022/10/09 05:56:25;;;;;;;18.55;10.75;;;;;;;1.90;100.00;102454.97;5035286;28;20118;-77
2022/10/09 05:58:59;;;;;;;16.13;10.30;;;;;;;1.87;100.00;102454.97;5035040;28;20112;-82
2022/10/09 06:01:27;;;;;;;17.85;10.52;;;;;;;1.92;100.00;102455.81;5035012;28;20041;-81
2022/10/09 06:03:54;;;;;;;19.13;10.35;;;;;;;1.77;100.00;102432.91;5035250;28;20025;-77
2022/10/09 06:06:22;;;;;;;17.70;11.13;;;;;;;1.90;100.00;102450.72;5035302;28;20026;-81
2022/10/09 06:08:49;;;;;;;18.70;11.50;;;;;;;2.03;100.00;102466.00;5035083;28;20029;-81
2022/10/09 06:11:30;;;;;;;20.27;13.38;;;;;;;2.03;100.00;102459.19;5034785;28;20493;-76
2022/10/09 06:13:56;;;;;;;19.35;14.65;;;;;;;1.96;100.00;102439.66;5034684;28;20034;-78
2022/10/09 06:16:25;;;;;;;21.27;15.75;;;;;;;2.14;100.00;102467.66;5035002;28;20037;-77
2022/10/09 06:18:52;;;;;;;23.20;16.52;;;;;;;2.13;100.00;102449.84;5035018;28;20044;-77
2022/10/09 06:21:18;;;;;;;25.38;17.45;;;;;;;2.22;100.00;102460.00;5034898;28;20029;-79
2022/10/09 06:23:43;;;;;;;25.98;17.83;;;;;;;2.26;100.00;102465.13;5034799;28;20487;-76
2022/10/09 06:26:11;;;;;;;23.85;18.55;;;;;;;2.13;100.00;102437.94;5034473;28;20032;-77
2022/10/09 06:28:37;;;;;;;25.38;16.67;;;;;;;2.29;100.00;102460.00;5034640;28;20021;-78
2022/10/09 06:31:08;;;;;;;25.50;17.33;;;;;;;2.38;100.00;102471.03;5034596;28;20028;-80
2022/10/09 06:33:35;;;;;;;22.38;17.25;;;;;;;2.42;100.00;102475.25;5034758;28;20021;-76
2022/10/09 06:36:03;;;;;;;19.42;16.10;;;;;;;2.49;100.00;102454.00;5034596;28;20021;-77
2022/10/09 06:38:29;;;;;;;24.83;16.50;;;;;;;2.51;100.00;102459.94;5034617;28;20392;-74
2022/10/09 06:40:54;;;;;;;22.15;16.48;;;;;;;2.54;100.00;102458.22;5034170;28;20109;-79
2022/10/09 06:43:20;;;;;;;27.17;20.83;;;;;;;2.63;100.00;102456.50;5034415;28;20370;-79
2022/10/09 06:45:45;;;;;;;22.73;16.13;;;;;;;2.70;100.00;102468.38;5034316;28;20111;-77
2022/10/09 06:48:11;;;;;;;25.88;17.33;;;;;;;2.68;100.00;102447.97;5033981;28;20053;-77
2022/10/09 06:50:36;;;;;;;19.58;15.10;;;;;;;2.90;100.00;102463.19;5034201;28;20037;-75
2022/10/09 06:53:05;;;;;;;25.88;17.85;;;;;;;3.00;100.00;102463.13;5034241;28;20030;-80
2022/10/09 06:55:31;;;;;;;21.58;17.20;;;;;;;2.98;100.00;102452.06;5033759;28;20140;-82
2022/10/09 06:57:58;;;;;;;25.65;18.55;;;;;;;3.01;100.00;102436.75;5033364;28;20096;-77
2022/10/09 07:00:23;;;;;;;24.50;17.58;;;;;;;3.21;100.00;102448.53;5033789;28;20022;-78
2022/10/09 07:02:49;;;;;;;23.58;17.30;;;;;;;3.25;100.00;102432.34;5034121;28;20028;-78
2022/10/09 07:05:14;;;;;;;23.80;18.08;;;;;;;3.55;100.00;102467.88;5034094;28;20108;-77
2022/10/09 07:07:41;;;;;;;24.42;17.48;;;;;;;3.61;100.00;102452.50;5033853;28;20075;-77
2022/10/09 07:10:07;;;;;;;28.00;20.42;;;;;;;3.83;100.00;102472.75;5033675;28;20072;-78
2022/10/09 07:12:36;;;;;;;28.48;20.20;;;;;;;3.92;100.00;102465.84;5033580;28;20033;-80
2022/10/09 07:15:04;;;;;;;30.23;19.92;;;;;;;4.03;100.00;102468.31;5033555;28;20489;-79
2022/10/09 07:17:30;;;;;;;29.70;20.70;;;;;;;4.14;100.00;102471.63;5033652;28;20038;-78
2022/10/09 07:19:55;;;;;;;32.17;20.50;;;;;;;4.29;100.00;102463.78;5033626;28;20396;-82
2022/10/09 07:22:20;;;;;;;31.45;20.27;;;;;;;4.28;100.00;102449.31;5033665;28;20029;-83
2022/10/09 07:24:46;;;;;;;30.95;20.55;;;;;;;4.57;100.00;102466.03;5033470;28;20029;-77
2022/10/09 07:27:11;;;;;;;28.70;20.55;;;;;;;4.62;100.00;102454.03;5033384;28;20048;-76
2022/10/09 07:29:37;;;;;;;31.30;21.05;;;;;;;4.79;100.00;102461.50;5033373;28;20022;-77
2022/10/09 07:32:02;;;;;;;28.80;20.85;;;;;;;4.89;100.00;102461.34;5033389;28;20025;-80
2022/10/09 07:34:28;;;;;;;27.60;19.27;;;;;;;4.98;100.00;102459.53;5033592;28;20080;-84
2022/10/09 07:36:53;;;;;;;30.75;20.25;;;;;;;5.08;100.00;102456.84;5033324;28;20136;-82
2022/10/09 07:39:18;;;;;;;31.52;20.25;;;;;;;5.18;100.00;102457.56;5033349;28;20386;-78
2022/10/09 07:41:48;;;;;;;30.00;20.23;;;;;;;5.20;100.00;102448.13;5033219;28;20427;-77
2022/10/09 07:44:13;;;;;;;28.30;18.75;;;;;;;5.10;100.00;102423.53;5026190;28;20370;-75
2022/10/09 07:46:38;;;;;;;30.23;19.25;;;;;;;5.46;100.00;102463.09;5013696;28;20018;-76
2022/10/09 07:49:04;;;;;;;30.95;18.75;;;;;;;5.31;100.00;102425.78;5013575;28;20053;-78
2022/10/09 07:51:30;;;;;;;23.90;18.17;;;;;;;5.50;100.00;102448.53;5013209;28;20064;-77
2022/10/09 07:53:57;;;;;;;28.83;19.13;;;;;;;5.55;100.00;102431.38;5013329;28;20078;-75
2022/10/09 07:56:27;;;;;;;27.45;19.33;;;;;;;5.82;100.00;102460.84;5013211;28;20064;-76
2022/10/09 07:58:56;;;;;;;33.78;20.05;;;;;;;5.63;100.00;102416.72;5013148;28;20034;-80
2022/10/09 08:01:22;;;;;;;30.65;20.80;;;;;;;5.35;100.00;102350.56;5013312;28;20476;-79
2022/10/09 08:03:49;;;;;;;28.90;20.77;;;;;;;6.08;100.00;102450.97;5013222;28;20362;-79
2022/10/09 08:06:15;;;;;;;26.23;19.85;;;;;;;6.10;100.00;102448.41;5013361;28;20026;-77
2022/10/09 08:08:40;;;;;;;25.10;20.17;;;;;;;5.93;100.00;102402.56;5013399;28;20024;-78
2022/10/09 08:11:14;;;;;;;31.23;21.25;;;;;;;6.27;100.00;102454.03;5016349;28;20030;-79
2022/10/09 08:13:41;;;;;;;31.35;21.13;;;;;;;6.04;100.00;102391.22;5016921;28;20137;-77
2022/10/09 08:16:07;;;;;;;30.25;20.17;;;;;;;6.34;100.00;102432.53;5017098;28;20529;-77
2022/10/09 08:18:33;;;;;;;27.05;20.58;;;;;;;6.49;100.00;102450.22;5017180;28;20117;-79
2022/10/09 08:21:11;;;;;;;29.50;21.25;;;;;;;6.45;100.00;102416.94;5017351;28;20393;-79
2022/10/09 08:23:36;;;;;;;27.25;21.40;;;;;;;6.68;100.00;102424.13;5017305;28;20132;-79
2022/10/09 08:26:03;;;;;;;28.40;20.88;;;;;;;6.89;100.00;102439.09;5016907;28;20041;-79
2022/10/09 08:28:28;;;;;;;34.75;20.25;;;;;;;6.92;100.00;102431.31;5016822;28;20038;-79
2022/10/09 08:30:54;;;;;;;26.45;20.85;;;;;;;6.86;100.00;102416.88;5017019;28;20049;-79
2022/10/09 08:33:20;;;;;;;28.48;20.63;;;;;;;6.96;100.00;102424.38;5016717;28;20034;-80
2022/10/09 08:35:49;;;;;;;29.52;21.25;;;;;;;6.98;100.00;102399.50;5016671;28;20030;-78
2022/10/09 08:38:15;;;;;;;28.55;19.15;;;;;;;7.24;100.00;102429.75;5016798;28;20033;-80
2022/10/09 08:40:56;;;;;;;26.50;20.23;;;;;;;7.30;100.00;102427.88;5016734;28;20026;-81
2022/10/09 08:43:30;;;;;;;27.30;18.83;;;;;;;7.38;100.00;102423.41;5016525;28;20478;-79
2022/10/09 08:45:59;;;;;;;28.60;18.45;;;;;;;7.46;100.00;102423.19;5016552;28;20487;-80
2022/10/09 08:48:27;;;;;;;26.05;18.38;;;;;;;7.57;100.00;102423.81;5016588;28;20496;-79
2022/10/09 08:50:55;;;;;;;26.58;19.00;;;;;;;7.67;100.00;102414.09;5016479;28;20034;-80
2022/10/09 08:53:30;;;;;;;24.05;16.98;;;;;;;7.76;100.00;102425.00;5016550;28;20121;-80
2022/10/09 08:55:59;;;;;;;26.48;17.73;;;;;;;7.65;100.00;102391.00;5016489;28;20080;-79
2022/10/09 08:58:33;;;;;;;25.67;17.63;;;;;;;7.84;100.00;102396.53;5016246;28;20036;-79
2022/10/09 09:01:17;;;;;;;25.55;17.48;;;;;;;8.07;100.00;102405.38;5016311;28;20022;-79
2022/10/09 09:03:57;;;;;;;26.15;14.85;;;;;;;8.13;100.00;102403.47;5016328;28;20057;-80
2022/10/09 09:06:34;;;;;;;24.13;16.00;;;;;;;8.27;100.00;102396.22;5016261;28;20029;-79
2022/10/09 09:09:14;;;;;;;25.33;16.92;;;;;;;8.30;100.00;102395.28;5016432;28;20050;-79
2022/10/09 09:11:42;;;;;;;24.55;14.38;;;;;;;8.41;100.00;102401.00;5015906;28;20068;-80
2022/10/09 09:14:29;;;;;;;23.27;15.57;;;;;;;8.54;100.00;102396.31;5015803;28;20553;-77
2022/10/09 09:17:13;;;;;;;22.95;13.73;;;;;;;8.61;100.00;102385.78;5015998;28;20034;-80
2022/10/09 09:20:19;;;;;;;22.35;13.73;;;;;;;8.66;100.00;102380.53;5016076;28;20030;-77
2022/10/09 09:22:47;;;;;;;22.30;14.13;;;;;;;8.80;100.00;102387.81;4973731;28;20074;-78
2022/10/09 09:25:20;;;;;;;19.88;12.73;;;;;;;8.89;100.00;102374.66;4974819;28;20055;-78
2022/10/09 09:27:47;;;;;;;20.13;12.02;;;;;;;9.06;100.00;102380.13;4974360;28;20077;-79
2022/10/09 09:30:17;;;;;;;21.52;11.38;;;;;;;9.09;99.43;102367.13;4974651;28;20038;-76
2022/10/09 09:33:04;;;;;;;24.25;12.68;;;;;;;9.20;98.90;102356.47;4974424;28;20058;-79
2022/10/09 09:35:48;;;;;;;19.67;13.07;;;;;;;9.37;98.18;102359.34;4974203;28;20043;-77
2022/10/09 09:38:14;;;;;;;19.92;10.95;;;;;;;9.43;96.62;102350.56;4974592;28;20109;-77
2022/10/09 09:40:40;;;;;;;16.60;9.27;;;;;;;9.59;96.79;102356.88;4974659;28;20134;-79
2022/10/09 09:43:17;;;;;;;17.35;10.20;;;;;;;9.68;93.89;102338.50;4974176;28;20035;-76
2022/10/09 09:45:43;;;;;;;16.95;9.10;;;;;;;9.80;93.85;102346.72;4974512;28;20038;-78
2022/10/09 09:48:14;;;;;;;18.88;9.45;;;;;;;9.83;91.82;102320.78;4974621;28;20147;-80
2022/10/09 09:50:42;;;;;;;;;;;;;;;9.88;95.61;102340.38;4974976;28;20467;-79
2022/10/09 09:53:30;;;;;;;16.55;9.63;;;;;;;9.74;92.61;102291.88;4974340;28;19914;-77
2022/10/09 09:55:56;;;;;;;17.98;10.60;;;;;;;9.88;92.52;102306.84;4974067;28;20065;-77
2022/10/09 09:58:32;;;;;;;13.70;9.68;;;;;;;10.09;91.65;102325.00;4979166;28;20027;-77
2022/10/09 10:01:00;;;;;;;20.30;10.13;;;;;;;9.97;91.11;102306.50;4997973;28;20033;-78
2022/10/09 10:03:26;;;;;;;19.05;10.63;;;;;;;10.24;90.07;102322.75;5015271;28;20025;-79
2022/10/09 10:05:52;;;;;;;14.40;9.82;;;;;;;10.33;90.74;102324.97;5015203;28;20489;-79
2022/10/09 10:08:30;;;;;;;14.52;8.90;;;;;;;10.28;89.41;102313.97;4997480;28;20021;-79
2022/10/09 10:10:58;;;;;;;12.70;9.05;;;;;;;10.26;89.52;102283.94;5014915;28;20533;-77
2022/10/09 10:13:50;;;;;;;15.63;9.05;;;;;;;10.56;88.90;102321.50;5014620;28;20494;-77
2022/10/09 10:16:27;;;;;;;15.45;8.75;;;;;;;10.59;86.92;102318.78;5014965;28;20022;-79
2022/10/09 10:18:55;;;;;;;16.48;8.77;;;;;;;10.68;85.98;102314.16;5014827;28;20037;-78
2022/10/09 10:21:21;;;;;;;17.38;9.90;;;;;;;10.73;85.35;102309.69;5014908;28;20109;-79
2022/10/09 10:23:53;;;;;;;17.55;8.93;;;;;;;10.87;86.54;102312.53;5014449;28;20457;-79
2022/10/09 10:26:21;;;;;;;20.85;9.18;;;;;;;10.95;87.93;102301.88;5014815;28;20049;-78
2022/10/09 10:28:54;;;;;;;16.20;9.23;;;;;;;11.02;84.97;102305.91;5014496;28;20022;-78
2022/10/09 10:31:42;;;;;;;16.08;8.73;;;;;;;11.17;85.00;102308.69;5014610;28;20026;-78
2022/10/09 10:34:17;;;;;;;15.40;8.90;;;;;;;11.12;83.73;102269.28;5014483;28;20034;-78
2022/10/09 10:36:43;;;;;;;16.30;8.23;;;;;;;11.09;82.95;102265.94;5014573;28;20026;-79
2022/10/09 10:39:23;;;;;;;15.50;8.68;;;;;;;11.14;82.18;102269.19;5014759;28;20038;-78
2022/10/09 10:41:52;;;;;;;15.00;9.02;;;;;;;11.18;82.97;102257.81;5014564;28;20080;-78
2022/10/09 10:44:42;;;;;;;16.63;9.70;;;;;;;11.26;83.90;102257.50;5014276;28;20069;-78
2022/10/09 10:47:17;;;;;;;17.08;8.38;;;;;;;11.46;81.91;102267.81;5014416;28;20037;-79
2022/10/09 10:49:42;;;;;;;20.17;8.18;;;;;;;11.46;80.77;102263.47;5014349;28;20026;-78
2022/10/09 10:52:44;;;;;;;19.77;7.63;;;;;;;11.49;81.55;102260.75;5014079;28;20026;-77
2022/10/09 10:55:31;;;;;;;11.57;6.80;;;;;;;11.57;79.85;102260.41;5014034;28;20484;-78
2022/10/09 10:58:40;;;;;;;15.80;7.80;;;;;;;11.62;80.20;102258.47;5014328;28;20026;-77
2022/10/09 11:01:24;;;;;;;14.85;7.13;;;;;;;11.62;80.36;102252.47;5013969;28;20022;-80
2022/10/09 11:04:13;;;;;;;16.27;6.32;;;;;;;11.71;80.23;102242.53;5014013;28;20033;-77
2022/10/09 11:07:00;;;;;;;15.23;6.32;;;;;;;11.85;78.35;102239.34;5013929;28;20026;-79
2022/10/09 11:09:44;;;;;;;15.82;6.60;;;;;;;11.90;78.35;102237.41;5014106;28;20034;-77
2022/10/09 11:12:15;;;;;;;14.73;6.15;;;;;;;11.98;77.00;102232.69;5013622;28;20041;-78
2022/10/09 11:14:46;;;;;;;13.82;6.47;;;;;;;11.99;76.21;102231.78;5013345;28;20432;-79
2022/10/09 11:17:30;;;;;;;13.73;7.38;;;;;;;11.95;76.27;102226.81;5013815;28;20057;-78
2022/10/09 11:23:09;;;;;;;11.05;6.68;;;;;;;12.04;77.37;102216.03;4978182;23;20054;-81
2022/10/09 11:26:07;;;;;;;16.73;6.30;;;;;;;11.78;76.04;102161.09;4957381;28;20030;-80
2022/10/09 11:28:52;;;;;;;11.73;5.32;;;;;;;11.15;74.25;102031.28;4974357;28;20054;-81